sensor_id;sensor_type;location;lat;lon;timestamp;P1;durP1;ratioP1;P2;durP2;ratioP2
55212;SDS011;41083;52.932;6.674;2022-08-21T00:00:49;3.22;;;0.93;;
55212;SDS011;41083;52.932;6.674;2022-08-21T00:03:15;1.13;;;0.65;;
55212;SDS011;41083;52.932;6.674;2022-08-21T00:05:43;1.08;;;0.60;;
55212;SDS011;41083;52.932;6.674;2022-08-21T00:08:12;3.50;;;0.70;;
55212;SDS011;41083;52.932;6.674;2022-08-21T00:10:39;1.85;;;0.47;;
55212;SDS011;41083;52.932;6.674;2022-08-21T00:13:05;1.95;;;0.82;;
55212;SDS011;41083;52.932;6.674;2022-08-21T00:15:32;1.08;;;0.65;;
55212;SDS011;41083;52.932;6.674;2022-08-21T00:18:00;1.52;;;0.70;;
55212;SDS011;41083;52.932;6.674;2022-08-21T00:20:26;1.55;;;0.85;;
55212;SDS011;41083;52.932;6.674;2022-08-21T00:22:52;1.95;;;0.80;;
55212;SDS011;41083;52.932;6.674;2022-08-21T00:25:18;1.20;;;0.70;;
55212;SDS011;41083;52.932;6.674;2022-08-21T00:27:44;2.25;;;0.90;;
55212;SDS011;41083;52.932;6.674;2022-08-21T00:30:11;1.20;;;0.70;;
55212;SDS011;41083;52.932;6.674;2022-08-21T00:32:39;1.08;;;0.70;;
55212;SDS011;41083;52.932;6.674;2022-08-21T00:35:06;1.80;;;0.63;;
55212;SDS011;41083;52.932;6.674;2022-08-21T00:37:36;2.03;;;0.65;;
55212;SDS011;41083;52.932;6.674;2022-08-21T00:40:02;1.35;;;0.70;;
55212;SDS011;41083;52.932;6.674;2022-08-21T00:42:30;1.63;;;0.77;;
55212;SDS011;41083;52.932;6.674;2022-08-21T00:44:56;1.45;;;0.75;;
55212;SDS011;41083;52.932;6.674;2022-08-21T00:47:22;1.35;;;0.70;;
55212;SDS011;41083;52.932;6.674;2022-08-21T00:49:47;1.63;;;0.88;;
55212;SDS011;41083;52.932;6.674;2022-08-21T00:52:22;1.83;;;0.82;;
55212;SDS011;41083;52.932;6.674;2022-08-21T00:54:51;1.63;;;0.93;;
55212;SDS011;41083;52.932;6.674;2022-08-21T00:57:21;1.33;;;0.50;;
55212;SDS011;41083;52.932;6.674;2022-08-21T00:59:54;1.10;;;0.70;;
55212;SDS011;41083;52.932;6.674;2022-08-21T01:02:23;0.88;;;0.52;;
55212;SDS011;41083;52.932;6.674;2022-08-21T01:04:49;2.08;;;0.55;;
55212;SDS011;41083;52.932;6.674;2022-08-21T01:07:15;2.13;;;0.63;;
55212;SDS011;41083;52.932;6.674;2022-08-21T01:09:42;1.10;;;0.60;;
55212;SDS011;41083;52.932;6.674;2022-08-21T01:12:10;1.88;;;0.60;;
55212;SDS011;41083;52.932;6.674;2022-08-21T01:14:36;2.17;;;1.10;;
55212;SDS011;41083;52.932;6.674;2022-08-21T01:17:03;0.95;;;0.60;;
55212;SDS011;41083;52.932;6.674;2022-08-21T01:19:30;1.42;;;0.80;;
55212;SDS011;41083;52.932;6.674;2022-08-21T01:21:55;2.65;;;1.08;;
55212;SDS011;41083;52.932;6.674;2022-08-21T01:24:21;0.95;;;0.50;;
55212;SDS011;41083;52.932;6.674;2022-08-21T01:26:47;1.55;;;0.68;;
55212;SDS011;41083;52.932;6.674;2022-08-21T01:29:36;1.35;;;0.95;;
55212;SDS011;41083;52.932;6.674;2022-08-21T01:32:09;3.70;;;0.90;;
55212;SDS011;41083;52.932;6.674;2022-08-21T01:34:38;2.03;;;0.80;;
55212;SDS011;41083;52.932;6.674;2022-08-21T01:37:05;1.05;;;0.85;;
55212;SDS011;41083;52.932;6.674;2022-08-21T01:39:31;1.38;;;0.80;;
55212;SDS011;41083;52.932;6.674;2022-08-21T01:41:58;2.03;;;1.13;;
55212;SDS011;41083;52.932;6.674;2022-08-21T01:44:24;1.65;;;0.90;;
55212;SDS011;41083;52.932;6.674;2022-08-21T01:46:51;1.85;;;0.98;;
55212;SDS011;41083;52.932;6.674;2022-08-21T01:49:16;1.67;;;0.70;;
55212;SDS011;41083;52.932;6.674;2022-08-21T01:51:42;2.35;;;1.40;;
55212;SDS011;41083;52.932;6.674;2022-08-21T01:54:08;1.58;;;0.95;;
55212;SDS011;41083;52.932;6.674;2022-08-21T01:56:41;2.80;;;0.82;;
55212;SDS011;41083;52.932;6.674;2022-08-21T02:01:36;1.63;;;1.10;;
55212;SDS011;41083;52.932;6.674;2022-08-21T02:04:04;2.72;;;1.45;;
55212;SDS011;41083;52.932;6.674;2022-08-21T02:06:31;1.80;;;1.02;;
55212;SDS011;41083;52.932;6.674;2022-08-21T02:08:57;3.13;;;1.13;;
55212;SDS011;41083;52.932;6.674;2022-08-21T02:11:23;1.88;;;1.08;;
55212;SDS011;41083;52.932;6.674;2022-08-21T02:13:48;4.15;;;1.50;;
55212;SDS011;41083;52.932;6.674;2022-08-21T02:16:14;3.67;;;1.52;;
55212;SDS011;41083;52.932;6.674;2022-08-21T02:18:40;4.82;;;1.50;;
55212;SDS011;41083;52.932;6.674;2022-08-21T02:21:06;2.80;;;1.55;;
55212;SDS011;41083;52.932;6.674;2022-08-21T02:23:32;3.30;;;1.77;;
55212;SDS011;41083;52.932;6.674;2022-08-21T02:25:59;4.68;;;1.58;;
55212;SDS011;41083;52.932;6.674;2022-08-21T02:28:26;3.42;;;1.60;;
55212;SDS011;41083;52.932;6.674;2022-08-21T02:30:51;2.53;;;1.45;;
55212;SDS011;41083;52.932;6.674;2022-08-21T02:33:17;2.97;;;1.67;;
55212;SDS011;41083;52.932;6.674;2022-08-21T02:35:46;3.53;;;1.58;;
55212;SDS011;41083;52.932;6.674;2022-08-21T02:38:14;2.70;;;1.58;;
55212;SDS011;41083;52.932;6.674;2022-08-21T02:40:42;3.17;;;2.00;;
55212;SDS011;41083;52.932;6.674;2022-08-21T02:43:10;3.88;;;1.90;;
55212;SDS011;41083;52.932;6.674;2022-08-21T02:45:36;3.00;;;1.80;;
55212;SDS011;41083;52.932;6.674;2022-08-21T02:48:04;3.33;;;2.13;;
55212;SDS011;41083;52.932;6.674;2022-08-21T02:50:33;5.78;;;2.05;;
55212;SDS011;41083;52.932;6.674;2022-08-21T02:53:01;5.03;;;2.33;;
55212;SDS011;41083;52.932;6.674;2022-08-21T02:55:28;2.97;;;1.63;;
55212;SDS011;41083;52.932;6.674;2022-08-21T02:57:56;3.35;;;1.92;;
55212;SDS011;41083;52.932;6.674;2022-08-21T03:00:23;4.22;;;2.03;;
55212;SDS011;41083;52.932;6.674;2022-08-21T03:02:50;3.28;;;2.05;;
55212;SDS011;41083;52.932;6.674;2022-08-21T03:05:16;3.08;;;1.50;;
55212;SDS011;41083;52.932;6.674;2022-08-21T03:07:43;3.13;;;1.90;;
55212;SDS011;41083;52.932;6.674;2022-08-21T03:10:11;5.72;;;1.90;;
55212;SDS011;41083;52.932;6.674;2022-08-21T03:12:37;3.33;;;1.80;;
55212;SDS011;41083;52.932;6.674;2022-08-21T03:15:03;3.20;;;1.80;;
55212;SDS011;41083;52.932;6.674;2022-08-21T03:17:30;3.47;;;1.83;;
55212;SDS011;41083;52.932;6.674;2022-08-21T03:19:56;3.50;;;2.13;;
55212;SDS011;41083;52.932;6.674;2022-08-21T03:22:22;5.32;;;2.28;;
55212;SDS011;41083;52.932;6.674;2022-08-21T03:24:47;3.05;;;1.70;;
55212;SDS011;41083;52.932;6.674;2022-08-21T03:27:13;3.60;;;1.98;;
55212;SDS011;41083;52.932;6.674;2022-08-21T03:29:39;3.13;;;1.88;;
55212;SDS011;41083;52.932;6.674;2022-08-21T03:32:05;3.80;;;2.15;;
55212;SDS011;41083;52.932;6.674;2022-08-21T03:34:34;4.60;;;2.05;;
55212;SDS011;41083;52.932;6.674;2022-08-21T03:37:00;3.38;;;1.90;;
55212;SDS011;41083;52.932;6.674;2022-08-21T03:39:26;4.40;;;2.55;;
55212;SDS011;41083;52.932;6.674;2022-08-21T03:41:52;3.10;;;2.08;;
55212;SDS011;41083;52.932;6.674;2022-08-21T03:44:19;3.30;;;1.83;;
55212;SDS011;41083;52.932;6.674;2022-08-21T03:46:44;3.53;;;1.40;;
55212;SDS011;41083;52.932;6.674;2022-08-21T03:49:10;3.22;;;1.88;;
55212;SDS011;41083;52.932;6.674;2022-08-21T03:51:37;3.30;;;1.50;;
55212;SDS011;41083;52.932;6.674;2022-08-21T03:54:02;4.30;;;2.10;;
55212;SDS011;41083;52.932;6.674;2022-08-21T03:56:28;4.78;;;2.33;;
55212;SDS011;41083;52.932;6.674;2022-08-21T03:58:54;3.05;;;1.77;;
55212;SDS011;41083;52.932;6.674;2022-08-21T04:01:20;7.00;;;2.55;;
55212;SDS011;41083;52.932;6.674;2022-08-21T04:03:46;5.70;;;2.10;;
55212;SDS011;41083;52.932;6.674;2022-08-21T04:06:12;3.85;;;2.00;;
55212;SDS011;41083;52.932;6.674;2022-08-21T04:08:37;3.88;;;1.90;;
55212;SDS011;41083;52.932;6.674;2022-08-21T04:11:03;3.97;;;2.33;;
55212;SDS011;41083;52.932;6.674;2022-08-21T04:13:30;4.32;;;2.45;;
55212;SDS011;41083;52.932;6.674;2022-08-21T04:15:56;3.38;;;1.63;;
55212;SDS011;41083;52.932;6.674;2022-08-21T04:18:23;3.33;;;1.90;;
55212;SDS011;41083;52.932;6.674;2022-08-21T04:20:50;4.25;;;2.13;;
55212;SDS011;41083;52.932;6.674;2022-08-21T04:23:18;4.30;;;2.45;;
55212;SDS011;41083;52.932;6.674;2022-08-21T04:25:44;4.93;;;2.05;;
55212;SDS011;41083;52.932;6.674;2022-08-21T04:28:10;3.17;;;1.73;;
55212;SDS011;41083;52.932;6.674;2022-08-21T04:30:36;5.65;;;2.40;;
55212;SDS011;41083;52.932;6.674;2022-08-21T04:33:02;5.15;;;2.42;;
55212;SDS011;41083;52.932;6.674;2022-08-21T04:35:28;4.07;;;2.03;;
55212;SDS011;41083;52.932;6.674;2022-08-21T04:37:55;3.20;;;2.17;;
55212;SDS011;41083;52.932;6.674;2022-08-21T04:40:22;4.45;;;2.50;;
55212;SDS011;41083;52.932;6.674;2022-08-21T04:42:57;5.40;;;2.33;;
55212;SDS011;41083;52.932;6.674;2022-08-21T04:45:28;4.63;;;2.10;;
55212;SDS011;41083;52.932;6.674;2022-08-21T04:47:59;5.15;;;2.22;;
55212;SDS011;41083;52.932;6.674;2022-08-21T04:50:27;4.22;;;2.25;;
55212;SDS011;41083;52.932;6.674;2022-08-21T04:53:16;3.33;;;2.17;;
55212;SDS011;41083;52.932;6.674;2022-08-21T04:55:44;4.03;;;2.28;;
55212;SDS011;41083;52.932;6.674;2022-08-21T04:58:12;4.47;;;2.20;;
55212;SDS011;41083;52.932;6.674;2022-08-21T05:00:41;4.65;;;2.58;;
55212;SDS011;41083;52.932;6.674;2022-08-21T05:03:07;6.60;;;2.38;;
55212;SDS011;41083;52.932;6.674;2022-08-21T05:05:34;4.93;;;2.38;;
55212;SDS011;41083;52.932;6.674;2022-08-21T05:08:01;3.40;;;2.30;;
55212;SDS011;41083;52.932;6.674;2022-08-21T05:10:27;5.88;;;2.88;;
55212;SDS011;41083;52.932;6.674;2022-08-21T05:12:54;4.35;;;2.47;;
55212;SDS011;41083;52.932;6.674;2022-08-21T05:15:20;4.55;;;3.05;;
55212;SDS011;41083;52.932;6.674;2022-08-21T05:17:46;4.53;;;2.70;;
55212;SDS011;41083;52.932;6.674;2022-08-21T05:20:12;5.60;;;2.67;;
55212;SDS011;41083;52.932;6.674;2022-08-21T05:22:39;5.13;;;2.15;;
55212;SDS011;41083;52.932;6.674;2022-08-21T05:25:06;4.40;;;2.15;;
55212;SDS011;41083;52.932;6.674;2022-08-21T05:27:33;3.67;;;2.10;;
55212;SDS011;41083;52.932;6.674;2022-08-21T05:29:58;7.32;;;2.78;;
55212;SDS011;41083;52.932;6.674;2022-08-21T05:32:24;4.55;;;2.55;;
55212;SDS011;41083;52.932;6.674;2022-08-21T05:34:50;5.78;;;2.90;;
55212;SDS011;41083;52.932;6.674;2022-08-21T05:37:16;4.43;;;2.40;;
55212;SDS011;41083;52.932;6.674;2022-08-21T05:39:41;8.43;;;2.47;;
55212;SDS011;41083;52.932;6.674;2022-08-21T05:42:07;5.18;;;2.65;;
55212;SDS011;41083;52.932;6.674;2022-08-21T05:44:33;5.13;;;2.38;;
55212;SDS011;41083;52.932;6.674;2022-08-21T05:47:08;3.88;;;2.00;;
55212;SDS011;41083;52.932;6.674;2022-08-21T05:49:35;4.97;;;2.33;;
55212;SDS011;41083;52.932;6.674;2022-08-21T05:52:02;3.03;;;2.22;;
55212;SDS011;41083;52.932;6.674;2022-08-21T05:54:29;7.15;;;2.80;;
55212;SDS011;41083;52.932;6.674;2022-08-21T05:56:55;5.57;;;2.40;;
55212;SDS011;41083;52.932;6.674;2022-08-21T05:59:21;4.18;;;2.40;;
55212;SDS011;41083;52.932;6.674;2022-08-21T06:01:47;4.40;;;2.13;;
55212;SDS011;41083;52.932;6.674;2022-08-21T06:04:13;5.28;;;2.22;;
55212;SDS011;41083;52.932;6.674;2022-08-21T06:06:39;6.38;;;2.20;;
55212;SDS011;41083;52.932;6.674;2022-08-21T06:09:05;4.32;;;2.13;;
55212;SDS011;41083;52.932;6.674;2022-08-21T06:11:31;6.40;;;2.50;;
55212;SDS011;41083;52.932;6.674;2022-08-21T06:13:58;4.28;;;2.30;;
55212;SDS011;41083;52.932;6.674;2022-08-21T06:16:24;5.30;;;1.95;;
55212;SDS011;41083;52.932;6.674;2022-08-21T06:18:50;3.22;;;1.90;;
55212;SDS011;41083;52.932;6.674;2022-08-21T06:21:16;4.65;;;2.22;;
55212;SDS011;41083;52.932;6.674;2022-08-21T06:23:42;4.63;;;1.88;;
55212;SDS011;41083;52.932;6.674;2022-08-21T06:26:08;3.50;;;1.50;;
55212;SDS011;41083;52.932;6.674;2022-08-21T06:28:36;6.57;;;2.63;;
55212;SDS011;41083;52.932;6.674;2022-08-21T06:31:13;3.15;;;1.73;;
55212;SDS011;41083;52.932;6.674;2022-08-21T06:33:44;7.55;;;2.10;;
55212;SDS011;41083;52.932;6.674;2022-08-21T06:36:10;4.00;;;2.65;;
55212;SDS011;41083;52.932;6.674;2022-08-21T06:38:36;2.95;;;1.65;;
55212;SDS011;41083;52.932;6.674;2022-08-21T06:41:02;2.85;;;1.67;;
55212;SDS011;41083;52.932;6.674;2022-08-21T06:43:28;3.25;;;1.80;;
55212;SDS011;41083;52.932;6.674;2022-08-21T06:45:54;5.25;;;2.08;;
55212;SDS011;41083;52.932;6.674;2022-08-21T06:48:20;3.67;;;1.67;;
55212;SDS011;41083;52.932;6.674;2022-08-21T06:50:46;2.97;;;1.63;;
55212;SDS011;41083;52.932;6.674;2022-08-21T06:53:13;3.50;;;1.63;;
55212;SDS011;41083;52.932;6.674;2022-08-21T06:55:40;3.50;;;1.77;;
55212;SDS011;41083;52.932;6.674;2022-08-21T06:58:07;2.75;;;1.40;;
55212;SDS011;41083;52.932;6.674;2022-08-21T07:00:33;3.95;;;2.00;;
55212;SDS011;41083;52.932;6.674;2022-08-21T07:03:00;4.40;;;1.90;;
55212;SDS011;41083;52.932;6.674;2022-08-21T07:05:26;2.97;;;1.58;;
55212;SDS011;41083;52.932;6.674;2022-08-21T07:07:54;3.95;;;1.50;;
55212;SDS011;41083;52.932;6.674;2022-08-21T07:10:20;2.65;;;1.35;;
55212;SDS011;41083;52.932;6.674;2022-08-21T07:12:45;4.30;;;2.00;;
55212;SDS011;41083;52.932;6.674;2022-08-21T07:15:11;4.40;;;1.40;;
55212;SDS011;41083;52.932;6.674;2022-08-21T07:17:37;3.58;;;1.90;;
55212;SDS011;41083;52.932;6.674;2022-08-21T07:20:04;4.80;;;1.63;;
55212;SDS011;41083;52.932;6.674;2022-08-21T07:22:31;2.92;;;1.33;;
55212;SDS011;41083;52.932;6.674;2022-08-21T07:24:57;7.20;;;1.30;;
55212;SDS011;41083;52.932;6.674;2022-08-21T07:27:23;2.50;;;1.20;;
55212;SDS011;41083;52.932;6.674;2022-08-21T07:29:48;2.47;;;1.50;;
55212;SDS011;41083;52.932;6.674;2022-08-21T07:32:14;3.03;;;1.13;;
55212;SDS011;41083;52.932;6.674;2022-08-21T07:34:40;1.55;;;0.80;;
55212;SDS011;41083;52.932;6.674;2022-08-21T07:37:06;2.92;;;1.10;;
55212;SDS011;41083;52.932;6.674;2022-08-21T07:39:32;2.50;;;0.90;;
55212;SDS011;41083;52.932;6.674;2022-08-21T07:41:57;2.65;;;1.40;;
55212;SDS011;41083;52.932;6.674;2022-08-21T07:44:23;2.05;;;1.17;;
55212;SDS011;41083;52.932;6.674;2022-08-21T07:46:48;2.30;;;0.88;;
55212;SDS011;41083;52.932;6.674;2022-08-21T07:49:14;3.83;;;1.20;;
55212;SDS011;41083;52.932;6.674;2022-08-21T07:51:40;2.63;;;1.25;;
55212;SDS011;41083;52.932;6.674;2022-08-21T07:54:05;3.20;;;1.23;;
55212;SDS011;41083;52.932;6.674;2022-08-21T07:56:31;2.25;;;0.95;;
55212;SDS011;41083;52.932;6.674;2022-08-21T07:58:57;3.08;;;1.00;;
55212;SDS011;41083;52.932;6.674;2022-08-21T08:01:22;2.60;;;0.80;;
55212;SDS011;41083;52.932;6.674;2022-08-21T08:03:49;1.58;;;0.70;;
55212;SDS011;41083;52.932;6.674;2022-08-21T08:06:15;3.28;;;1.08;;
55212;SDS011;41083;52.932;6.674;2022-08-21T08:08:43;2.63;;;1.33;;
55212;SDS011;41083;52.932;6.674;2022-08-21T08:11:09;4.63;;;1.20;;
55212;SDS011;41083;52.932;6.674;2022-08-21T08:13:43;2.92;;;1.27;;
55212;SDS011;41083;52.932;6.674;2022-08-21T08:16:11;2.10;;;0.88;;
55212;SDS011;41083;52.932;6.674;2022-08-21T08:18:37;2.88;;;1.10;;
55212;SDS011;41083;52.932;6.674;2022-08-21T08:21:03;1.92;;;0.93;;
55212;SDS011;41083;52.932;6.674;2022-08-21T08:23:29;4.43;;;1.08;;
55212;SDS011;41083;52.932;6.674;2022-08-21T08:25:56;4.45;;;0.98;;
55212;SDS011;41083;52.932;6.674;2022-08-21T08:28:22;2.05;;;1.00;;
55212;SDS011;41083;52.932;6.674;2022-08-21T08:30:47;1.40;;;0.90;;
55212;SDS011;41083;52.932;6.674;2022-08-21T08:33:14;2.60;;;0.90;;
55212;SDS011;41083;52.932;6.674;2022-08-21T08:35:42;2.38;;;0.70;;
55212;SDS011;41083;52.932;6.674;2022-08-21T08:38:11;2.08;;;1.00;;
55212;SDS011;41083;52.932;6.674;2022-08-21T08:41:12;2.92;;;1.10;;
55212;SDS011;41083;52.932;6.674;2022-08-21T08:43:41;1.63;;;0.80;;
55212;SDS011;41083;52.932;6.674;2022-08-21T08:46:14;1.50;;;0.73;;
55212;SDS011;41083;52.932;6.674;2022-08-21T08:48:52;1.80;;;0.85;;
55212;SDS011;41083;52.932;6.674;2022-08-21T08:51:29;2.47;;;1.10;;
55212;SDS011;41083;52.932;6.674;2022-08-21T08:54:08;1.50;;;0.93;;
55212;SDS011;41083;52.932;6.674;2022-08-21T08:56:37;2.45;;;0.98;;
55212;SDS011;41083;52.932;6.674;2022-08-21T08:59:09;1.25;;;0.77;;
55212;SDS011;41083;52.932;6.674;2022-08-21T09:01:40;2.85;;;1.13;;
55212;SDS011;41083;52.932;6.674;2022-08-21T09:04:06;2.20;;;1.05;;
55212;SDS011;41083;52.932;6.674;2022-08-21T09:06:41;1.77;;;0.70;;
55212;SDS011;41083;52.932;6.674;2022-08-21T09:12:09;2.45;;;0.88;;
55212;SDS011;41083;52.932;6.674;2022-08-21T09:17:49;4.07;;;0.80;;
55212;SDS011;41083;52.932;6.674;2022-08-21T09:20:32;3.55;;;0.80;;
55212;SDS011;41083;52.932;6.674;2022-08-21T09:23:25;2.00;;;0.68;;
55212;SDS011;41083;52.932;6.674;2022-08-21T09:28:33;1.23;;;0.70;;
55212;SDS011;41083;52.932;6.674;2022-08-21T09:31:00;1.48;;;0.77;;
55212;SDS011;41083;52.932;6.674;2022-08-21T09:33:36;3.47;;;0.70;;
55212;SDS011;41083;52.932;6.674;2022-08-21T09:36:02;2.10;;;0.50;;
55212;SDS011;41083;52.932;6.674;2022-08-21T09:38:33;1.20;;;0.60;;
55212;SDS011;41083;52.932;6.674;2022-08-21T09:41:05;1.17;;;0.68;;
55212;SDS011;41083;52.932;6.674;2022-08-21T09:43:33;2.55;;;0.63;;
55212;SDS011;41083;52.932;6.674;2022-08-21T09:46:10;1.48;;;0.50;;
55212;SDS011;41083;52.932;6.674;2022-08-21T09:48:46;2.13;;;0.70;;
55212;SDS011;41083;52.932;6.674;2022-08-21T09:51:17;1.17;;;0.35;;
55212;SDS011;41083;52.932;6.674;2022-08-21T09:53:51;1.20;;;0.43;;
55212;SDS011;41083;52.932;6.674;2022-08-21T09:56:32;2.58;;;0.50;;
55212;SDS011;41083;52.932;6.674;2022-08-21T09:59:32;2.70;;;0.60;;
55212;SDS011;41083;52.932;6.674;2022-08-21T10:02:00;3.03;;;0.40;;
55212;SDS011;41083;52.932;6.674;2022-08-21T10:04:31;1.48;;;0.40;;
55212;SDS011;41083;52.932;6.674;2022-08-21T10:07:06;0.80;;;0.45;;
55212;SDS011;41083;52.932;6.674;2022-08-21T10:09:45;0.88;;;0.40;;
55212;SDS011;41083;52.932;6.674;2022-08-21T10:12:24;2.80;;;0.40;;
55212;SDS011;41083;52.932;6.674;2022-08-21T10:18:05;2.03;;;0.85;;
55212;SDS011;41083;52.932;6.674;2022-08-21T10:23:45;2.03;;;0.40;;
55212;SDS011;41083;52.932;6.674;2022-08-21T10:26:39;1.25;;;0.50;;
55212;SDS011;41083;52.932;6.674;2022-08-21T10:35:13;2.88;;;0.70;;
55212;SDS011;41083;52.932;6.674;2022-08-21T10:40:56;3.08;;;0.43;;
55212;SDS011;41083;52.932;6.674;2022-08-21T10:49:23;2.50;;;0.60;;
55212;SDS011;41083;52.932;6.674;2022-08-21T10:55:18;2.10;;;0.63;;
55212;SDS011;41083;52.932;6.674;2022-08-21T10:57:58;2.97;;;0.40;;
55212;SDS011;41083;52.932;6.674;2022-08-21T11:00:34;1.10;;;0.52;;
55212;SDS011;41083;52.932;6.674;2022-08-21T11:05:51;1.25;;;0.65;;
55212;SDS011;41083;52.932;6.674;2022-08-21T11:13:45;0.73;;;0.40;;
55212;SDS011;41083;52.932;6.674;2022-08-21T11:16:18;1.90;;;0.52;;
55212;SDS011;41083;52.932;6.674;2022-08-21T11:21:34;1.65;;;0.63;;
55212;SDS011;41083;52.932;6.674;2022-08-21T11:24:15;2.35;;;0.60;;
55212;SDS011;41083;52.932;6.674;2022-08-21T11:26:47;1.02;;;0.30;;
55212;SDS011;41083;52.932;6.674;2022-08-21T11:29:33;1.35;;;0.60;;
55212;SDS011;41083;52.932;6.674;2022-08-21T11:32:12;0.82;;;0.43;;
55212;SDS011;41083;52.932;6.674;2022-08-21T11:52:21;1.98;;;0.38;;
55212;SDS011;41083;52.932;6.674;2022-08-21T11:54:59;1.95;;;0.80;;
55212;SDS011;41083;52.932;6.674;2022-08-21T12:02:35;0.50;;;0.40;;
55212;SDS011;41083;52.932;6.674;2022-08-21T12:05:07;1.27;;;0.40;;
55212;SDS011;41083;52.932;6.674;2022-08-21T12:10:10;2.90;;;0.70;;
55212;SDS011;41083;52.932;6.674;2022-08-21T12:12:39;2.33;;;0.40;;
55212;SDS011;41083;52.932;6.674;2022-08-21T12:17:56;1.92;;;0.80;;
55212;SDS011;41083;52.932;6.674;2022-08-21T12:20:38;2.15;;;0.38;;
55212;SDS011;41083;52.932;6.674;2022-08-21T12:25:37;4.75;;;0.52;;
55212;SDS011;41083;52.932;6.674;2022-08-21T12:28:09;0.73;;;0.40;;
55212;SDS011;41083;52.932;6.674;2022-08-21T12:30:39;1.05;;;0.50;;
55212;SDS011;41083;52.932;6.674;2022-08-21T12:33:25;3.33;;;0.43;;
55212;SDS011;41083;52.932;6.674;2022-08-21T12:36:03;2.03;;;0.70;;
55212;SDS011;41083;52.932;6.674;2022-08-21T12:41:12;1.42;;;0.50;;
55212;SDS011;41083;52.932;6.674;2022-08-21T12:43:46;3.17;;;0.70;;
55212;SDS011;41083;52.932;6.674;2022-08-21T12:46:27;2.50;;;0.77;;
55212;SDS011;41083;52.932;6.674;2022-08-21T12:49:34;2.75;;;0.63;;
55212;SDS011;41083;52.932;6.674;2022-08-21T12:52:08;2.35;;;0.50;;
55212;SDS011;41083;52.932;6.674;2022-08-21T12:54:38;0.73;;;0.40;;
55212;SDS011;41083;52.932;6.674;2022-08-21T12:57:07;1.73;;;0.60;;
55212;SDS011;41083;52.932;6.674;2022-08-21T12:59:38;1.33;;;0.70;;
55212;SDS011;41083;52.932;6.674;2022-08-21T13:02:10;2.17;;;0.47;;
55212;SDS011;41083;52.932;6.674;2022-08-21T13:04:44;2.17;;;0.50;;
55212;SDS011;41083;52.932;6.674;2022-08-21T13:07:13;1.95;;;0.70;;
55212;SDS011;41083;52.932;6.674;2022-08-21T13:09:51;1.52;;;0.50;;
55212;SDS011;41083;52.932;6.674;2022-08-21T13:12:21;5.88;;;0.80;;
55212;SDS011;41083;52.932;6.674;2022-08-21T13:14:48;4.50;;;1.00;;
55212;SDS011;41083;52.932;6.674;2022-08-21T13:17:16;3.30;;;0.60;;
55212;SDS011;41083;52.932;6.674;2022-08-21T13:22:47;3.35;;;0.95;;
55212;SDS011;41083;52.932;6.674;2022-08-21T13:25:13;4.32;;;0.80;;
55212;SDS011;41083;52.932;6.674;2022-08-21T13:27:41;2.42;;;0.70;;
55212;SDS011;41083;52.932;6.674;2022-08-21T13:30:17;1.50;;;0.63;;
55212;SDS011;41083;52.932;6.674;2022-08-21T13:32:47;2.30;;;0.82;;
55212;SDS011;41083;52.932;6.674;2022-08-21T13:35:20;1.33;;;0.50;;
55212;SDS011;41083;52.932;6.674;2022-08-21T13:37:51;1.08;;;0.50;;
55212;SDS011;41083;52.932;6.674;2022-08-21T13:40:24;1.38;;;0.73;;
55212;SDS011;41083;52.932;6.674;2022-08-21T13:42:53;1.70;;;0.77;;
55212;SDS011;41083;52.932;6.674;2022-08-21T13:45:29;1.50;;;0.70;;
55212;SDS011;41083;52.932;6.674;2022-08-21T13:47:57;1.58;;;0.60;;
55212;SDS011;41083;52.932;6.674;2022-08-21T13:50:25;1.67;;;0.68;;
55212;SDS011;41083;52.932;6.674;2022-08-21T13:53:02;1.45;;;0.73;;
55212;SDS011;41083;52.932;6.674;2022-08-21T13:55:38;4.05;;;0.90;;
55212;SDS011;41083;52.932;6.674;2022-08-21T14:00:34;1.85;;;0.60;;
55212;SDS011;41083;52.932;6.674;2022-08-21T14:03:11;1.88;;;0.60;;
55212;SDS011;41083;52.932;6.674;2022-08-21T14:05:53;1.60;;;0.68;;
55212;SDS011;41083;52.932;6.674;2022-08-21T14:08:35;4.78;;;0.90;;
55212;SDS011;41083;52.932;6.674;2022-08-21T14:11:03;1.85;;;0.80;;
55212;SDS011;41083;52.932;6.674;2022-08-21T14:13:38;4.07;;;0.90;;
55212;SDS011;41083;52.932;6.674;2022-08-21T14:16:12;1.42;;;0.50;;
55212;SDS011;41083;52.932;6.674;2022-08-21T14:21:29;1.13;;;0.70;;
55212;SDS011;41083;52.932;6.674;2022-08-21T14:24:25;0.70;;;0.43;;
55212;SDS011;41083;52.932;6.674;2022-08-21T14:26:57;1.80;;;0.70;;
55212;SDS011;41083;52.932;6.674;2022-08-21T14:29:37;1.73;;;0.80;;
55212;SDS011;41083;52.932;6.674;2022-08-21T14:32:23;3.53;;;0.70;;
55212;SDS011;41083;52.932;6.674;2022-08-21T14:34:55;3.65;;;0.70;;
55212;SDS011;41083;52.932;6.674;2022-08-21T14:37:22;1.90;;;0.65;;
55212;SDS011;41083;52.932;6.674;2022-08-21T14:39:48;1.23;;;0.50;;
55212;SDS011;41083;52.932;6.674;2022-08-21T14:42:14;0.85;;;0.45;;
55212;SDS011;41083;52.932;6.674;2022-08-21T14:44:40;1.23;;;0.93;;
55212;SDS011;41083;52.932;6.674;2022-08-21T14:47:06;1.50;;;0.60;;
55212;SDS011;41083;52.932;6.674;2022-08-21T14:49:33;2.83;;;0.55;;
55212;SDS011;41083;52.932;6.674;2022-08-21T14:51:58;1.95;;;0.73;;
55212;SDS011;41083;52.932;6.674;2022-08-21T14:54:28;0.50;;;0.40;;
55212;SDS011;41083;52.932;6.674;2022-08-21T14:56:54;1.55;;;0.60;;
55212;SDS011;41083;52.932;6.674;2022-08-21T14:59:21;0.80;;;0.40;;
55212;SDS011;41083;52.932;6.674;2022-08-21T15:01:48;2.50;;;0.60;;
55212;SDS011;41083;52.932;6.674;2022-08-21T15:04:14;2.40;;;0.50;;
55212;SDS011;41083;52.932;6.674;2022-08-21T15:06:40;3.20;;;0.80;;
55212;SDS011;41083;52.932;6.674;2022-08-21T15:09:06;0.90;;;0.45;;
55212;SDS011;41083;52.932;6.674;2022-08-21T15:11:32;1.27;;;0.52;;
55212;SDS011;41083;52.932;6.674;2022-08-21T15:14:00;2.00;;;0.70;;
55212;SDS011;41083;52.932;6.674;2022-08-21T15:16:28;1.55;;;0.50;;
55212;SDS011;41083;52.932;6.674;2022-08-21T15:18:56;1.58;;;0.60;;
55212;SDS011;41083;52.932;6.674;2022-08-21T15:21:22;0.90;;;0.40;;
55212;SDS011;41083;52.932;6.674;2022-08-21T15:23:48;2.45;;;0.57;;
55212;SDS011;41083;52.932;6.674;2022-08-21T15:26:13;0.93;;;0.57;;
55212;SDS011;41083;52.932;6.674;2022-08-21T15:28:39;2.30;;;0.68;;
55212;SDS011;41083;52.932;6.674;2022-08-21T15:31:05;0.80;;;0.40;;
55212;SDS011;41083;52.932;6.674;2022-08-21T15:33:31;3.60;;;0.63;;
55212;SDS011;41083;52.932;6.674;2022-08-21T15:35:57;0.82;;;0.45;;
55212;SDS011;41083;52.932;6.674;2022-08-21T15:38:23;1.33;;;0.55;;
55212;SDS011;41083;52.932;6.674;2022-08-21T15:40:49;1.17;;;0.50;;
55212;SDS011;41083;52.932;6.674;2022-08-21T15:45:51;1.13;;;0.50;;
55212;SDS011;41083;52.932;6.674;2022-08-21T15:48:17;5.28;;;0.70;;
55212;SDS011;41083;52.932;6.674;2022-08-21T15:50:43;2.15;;;0.43;;
55212;SDS011;41083;52.932;6.674;2022-08-21T15:53:08;1.52;;;0.55;;
55212;SDS011;41083;52.932;6.674;2022-08-21T15:55:34;0.77;;;0.40;;
55212;SDS011;41083;52.932;6.674;2022-08-21T15:58:00;1.13;;;0.70;;
55212;SDS011;41083;52.932;6.674;2022-08-21T16:00:27;0.75;;;0.28;;
55212;SDS011;41083;52.932;6.674;2022-08-21T16:02:57;1.15;;;0.60;;
55212;SDS011;41083;52.932;6.674;2022-08-21T16:05:23;2.08;;;0.50;;
55212;SDS011;41083;52.932;6.674;2022-08-21T16:07:50;2.15;;;0.68;;
55212;SDS011;41083;52.932;6.674;2022-08-21T16:10:17;1.08;;;0.40;;
55212;SDS011;41083;52.932;6.674;2022-08-21T16:12:47;1.63;;;0.60;;
55212;SDS011;41083;52.932;6.674;2022-08-21T16:15:16;1.58;;;0.40;;
55212;SDS011;41083;52.932;6.674;2022-08-21T16:17:43;3.70;;;0.60;;
55212;SDS011;41083;52.932;6.674;2022-08-21T16:20:14;4.97;;;0.68;;
55212;SDS011;41083;52.932;6.674;2022-08-21T16:22:42;1.55;;;0.50;;
55212;SDS011;41083;52.932;6.674;2022-08-21T16:25:08;1.60;;;0.35;;
55212;SDS011;41083;52.932;6.674;2022-08-21T16:27:34;1.75;;;0.40;;
55212;SDS011;41083;52.932;6.674;2022-08-21T16:30:00;1.85;;;0.60;;